createdAt,value
2022-08-14T00:01:03.918Z,1.90
2022-08-14T00:03:40.650Z,2.05
2022-08-14T00:06:25.667Z,1.83
2022-08-14T00:08:59.230Z,1.58
2022-08-14T00:11:31.300Z,1.90
2022-08-14T00:13:59.829Z,1.90
2022-08-14T00:16:41.274Z,1.70
2022-08-14T00:19:19.497Z,2.05
2022-08-14T00:21:52.168Z,2.38
2022-08-14T00:24:28.440Z,2.40
2022-08-14T00:27:02.230Z,2.28
2022-08-14T00:29:40.007Z,3.03
2022-08-14T00:32:50.555Z,2.33
2022-08-14T00:34:57.101Z,2.53
2022-08-14T00:37:25.582Z,2.42
2022-08-14T00:39:52.776Z,2.50
2022-08-14T00:42:55.530Z,2.25
2022-08-14T00:45:09.316Z,2.08
2022-08-14T00:47:43.125Z,2.55
2022-08-14T00:50:17.824Z,2.20
2022-08-14T00:52:47.410Z,2.38
2022-08-14T00:55:19.914Z,2.13
2022-08-14T00:58:07.451Z,2.20
2022-08-14T01:00:42.905Z,2.22
2022-08-14T01:03:20.386Z,2.38
2022-08-14T01:05:52.639Z,2.58
2022-08-14T01:08:52.450Z,2.20
2022-08-14T01:11:18.835Z,2.28
2022-08-14T01:13:55.920Z,2.67
2022-08-14T01:16:31.188Z,2.50
2022-08-14T01:19:17.189Z,2.20
2022-08-14T01:21:53.128Z,1.92
2022-08-14T01:24:24.630Z,2.20
2022-08-14T01:27:00.260Z,2.83
2022-08-14T01:29:44.646Z,2.47
2022-08-14T01:32:15.691Z,2.70
2022-08-14T01:35:17.422Z,2.42
2022-08-14T01:37:44.571Z,2.65
2022-08-14T01:40:19.815Z,2.70
2022-08-14T01:42:47.600Z,2.65
2022-08-14T01:45:17.805Z,3.30
2022-08-14T01:48:03.463Z,2.55
2022-08-14T01:50:30.868Z,2.47
2022-08-14T01:53:02.745Z,2.67
2022-08-14T01:55:32.497Z,2.80
2022-08-14T01:58:18.662Z,2.50
2022-08-14T02:00:47.941Z,2.67
2022-08-14T02:03:16.143Z,2.45
2022-08-14T02:05:44.075Z,2.30
2022-08-14T02:08:11.288Z,2.47
2022-08-14T02:10:46.497Z,2.53
2022-08-14T02:13:16.056Z,2.70
2022-08-14T02:15:44.103Z,2.35
2022-08-14T02:18:11.668Z,2.00
2022-08-14T02:20:40.029Z,2.03
2022-08-14T02:23:08.549Z,2.15
2022-08-14T02:25:36.349Z,2.40
2022-08-14T02:28:23.958Z,2.42
2022-08-14T02:30:52.334Z,2.25
2022-08-14T02:33:21.215Z,2.58
2022-08-14T02:35:53.587Z,2.15
2022-08-14T02:38:30.071Z,2.20
2022-08-14T02:40:58.905Z,2.05
2022-08-14T02:43:37.156Z,2.47
2022-08-14T02:46:20.762Z,2.45
2022-08-14T02:49:02.063Z,2.47
2022-08-14T02:51:33.431Z,2.40
2022-08-14T02:54:01.819Z,2.45
2022-08-14T02:57:14.296Z,2.25
2022-08-14T02:59:18.297Z,2.45
2022-08-14T03:01:50.848Z,2.20
2022-08-14T03:04:21.812Z,2.60
2022-08-14T03:07:06.062Z,2.50
2022-08-14T03:10:24.649Z,2.15
2022-08-14T03:12:31.169Z,2.22
2022-08-14T03:15:03.159Z,2.15
2022-08-14T03:17:31.836Z,2.72
2022-08-14T03:20:11.056Z,2.28
2022-08-14T03:22:41.907Z,2.17
2022-08-14T03:25:10.780Z,2.30
2022-08-14T03:27:48.213Z,2.13
2022-08-14T03:30:39.428Z,2.17
2022-08-14T03:33:09.076Z,2.40
2022-08-14T03:35:40.243Z,2.35
2022-08-14T03:39:16.102Z,2.10
2022-08-14T03:41:17.171Z,2.50
2022-08-14T03:43:44.818Z,2.47
2022-08-14T03:46:38.846Z,2.72
2022-08-14T03:49:02.983Z,2.50
2022-08-14T03:51:30.301Z,2.63
2022-08-14T03:53:58.403Z,2.45
2022-08-14T03:56:26.608Z,2.78
2022-08-14T03:58:56.095Z,2.33
2022-08-14T04:01:29.455Z,2.80
2022-08-14T04:04:09.740Z,2.30
2022-08-14T04:06:47.486Z,2.78
2022-08-14T04:09:14.942Z,2.50
2022-08-14T04:11:45.270Z,2.90
2022-08-14T04:14:15.321Z,2.78
2022-08-14T04:16:46.553Z,2.80
2022-08-14T04:19:18.717Z,2.55
2022-08-14T04:22:03.410Z,2.67
2022-08-14T04:24:38.130Z,2.85
2022-08-14T04:27:06.323Z,2.42
2022-08-14T04:29:38.339Z,3.20
2022-08-14T04:33:10.596Z,2.88
2022-08-14T04:34:55.869Z,2.55
2022-08-14T04:37:42.374Z,2.90
2022-08-14T04:40:28.972Z,2.92
2022-08-14T04:43:17.322Z,2.72
2022-08-14T04:45:44.883Z,3.00
2022-08-14T04:48:13.884Z,2.80
2022-08-14T04:51:01.892Z,2.92
2022-08-14T04:53:35.540Z,2.60
2022-08-14T04:56:06.122Z,2.80
2022-08-14T04:58:47.937Z,2.67
2022-08-14T05:01:19.476Z,2.88
2022-08-14T05:03:46.957Z,2.63
2022-08-14T05:06:37.341Z,3.20
2022-08-14T05:09:01.637Z,3.00
2022-08-14T05:11:33.487Z,3.47
2022-08-14T05:14:16.795Z,3.65
2022-08-14T05:16:52.199Z,3.38
2022-08-14T05:19:27.363Z,4.40
2022-08-14T05:22:15.708Z,4.00
2022-08-14T05:24:45.327Z,4.53
2022-08-14T05:27:16.066Z,4.25
2022-08-14T05:29:45.032Z,4.63
2022-08-14T05:32:13.418Z,3.97
2022-08-14T05:34:45.885Z,4.22
2022-08-14T05:37:15.434Z,4.93
2022-08-14T05:39:43.033Z,3.92
2022-08-14T05:42:21.969Z,4.43
2022-08-14T05:44:55.250Z,4.22
2022-08-14T05:47:22.931Z,3.97
2022-08-14T05:49:50.523Z,3.72
2022-08-14T05:52:19.050Z,4.00
2022-08-14T05:55:07.204Z,3.55
2022-08-14T05:57:34.489Z,4.07
2022-08-14T06:00:01.855Z,4.38
2022-08-14T06:02:29.045Z,4.03
2022-08-14T06:04:58.722Z,4.38
2022-08-14T06:07:26.093Z,4.68
2022-08-14T06:09:53.453Z,4.07
2022-08-14T06:12:55.209Z,3.60
2022-08-14T06:15:08.517Z,4.53
2022-08-14T06:17:58.489Z,4.45
2022-08-14T06:20:27.902Z,5.28
2022-08-14T06:22:56.314Z,6.95
2022-08-14T06:25:25.061Z,5.35
2022-08-14T06:27:53.175Z,7.47
2022-08-14T06:30:21.698Z,5.20
2022-08-14T06:32:52.899Z,7.25
2022-08-14T06:35:22.900Z,6.20
2022-08-14T06:37:57.307Z,6.32
2022-08-14T06:40:27.543Z,5.43
2022-08-14T06:42:56.501Z,6.35
2022-08-14T06:45:26.384Z,5.68
2022-08-14T06:47:54.255Z,5.72
2022-08-14T06:50:27.582Z,6.63
2022-08-14T06:52:55.166Z,6.28
2022-08-14T06:55:27.692Z,6.05
2022-08-14T06:57:55.611Z,5.13
2022-08-14T07:00:27.061Z,5.35
2022-08-14T07:03:13.616Z,5.03
2022-08-14T07:05:55.639Z,5.25
2022-08-14T07:08:29.838Z,5.53
2022-08-14T07:11:00.148Z,5.72
2022-08-14T07:13:28.563Z,7.57
2022-08-14T07:15:58.790Z,5.57
2022-08-14T07:18:29.045Z,7.13
2022-08-14T07:20:56.606Z,6.25
2022-08-14T07:23:24.167Z,4.93
2022-08-14T07:25:52.394Z,6.43
2022-08-14T07:28:21.556Z,5.82
2022-08-14T07:30:50.836Z,7.15
2022-08-14T07:33:24.356Z,8.05
2022-08-14T07:35:58.953Z,7.15
2022-08-14T07:38:32.132Z,6.60
2022-08-14T07:41:07.046Z,6.00
2022-08-14T07:43:42.605Z,5.03
2022-08-14T07:46:11.311Z,5.53
2022-08-14T07:48:41.331Z,6.88
2022-08-14T07:51:10.588Z,5.63
2022-08-14T07:53:40.377Z,6.13
2022-08-14T07:56:21.506Z,5.88
2022-08-14T07:58:58.394Z,5.53
2022-08-14T08:01:26.416Z,5.97
2022-08-14T08:03:59.440Z,6.85
2022-08-14T08:06:27.693Z,4.80
2022-08-14T08:09:01.008Z,5.53
2022-08-14T08:11:30.149Z,6.03
2022-08-14T08:14:10.425Z,4.90
2022-08-14T08:16:38.405Z,5.68
2022-08-14T08:19:12.815Z,5.20
2022-08-14T08:21:43.815Z,6.10
2022-08-14T08:24:15.025Z,4.93
2022-08-14T08:26:45.978Z,5.88
2022-08-14T08:29:20.168Z,5.50
2022-08-14T08:31:52.887Z,4.70
2022-08-14T08:34:24.174Z,6.18
2022-08-14T08:36:52.618Z,5.35
2022-08-14T08:39:22.217Z,4.78
2022-08-14T08:41:53.175Z,5.20
2022-08-14T08:44:31.539Z,5.93
2022-08-14T08:47:05.507Z,5.50
2022-08-14T08:49:42.966Z,5.60
2022-08-14T08:52:24.487Z,5.93
2022-08-14T08:54:56.436Z,5.32
2022-08-14T08:57:24.366Z,6.18
2022-08-14T08:59:55.374Z,5.95
2022-08-14T09:02:27.587Z,5.30
2022-08-14T09:05:01.615Z,4.82
2022-08-14T09:07:28.779Z,4.82
2022-08-14T09:09:59.282Z,5.15
2022-08-14T09:12:32.352Z,5.40
2022-08-14T09:15:11.656Z,5.18
2022-08-14T09:17:40.251Z,5.50
2022-08-14T09:20:11.684Z,5.00
2022-08-14T09:22:47.839Z,4.70
2022-08-14T09:25:58.782Z,5.38
2022-08-14T09:28:09.071Z,4.93
2022-08-14T09:30:37.882Z,5.10
2022-08-14T09:33:25.478Z,4.32
2022-08-14T09:36:02.077Z,4.55
2022-08-14T09:38:37.552Z,4.95
2022-08-14T09:41:26.623Z,4.80
2022-08-14T09:44:32.326Z,4.32
2022-08-14T09:47:00.715Z,4.45
2022-08-14T09:49:34.144Z,4.43
2022-08-14T09:52:33.113Z,4.65
2022-08-14T09:55:02.880Z,4.68
2022-08-14T09:57:31.394Z,4.55
2022-08-14T09:59:58.903Z,4.00
2022-08-14T10:02:28.492Z,5.00
2022-08-14T10:05:12.008Z,4.63
2022-08-14T10:07:53.732Z,4.75
2022-08-14T10:10:29.467Z,4.32
2022-08-14T10:13:05.854Z,4.10
2022-08-14T10:15:38.339Z,4.40
2022-08-14T10:18:08.085Z,4.05
2022-08-14T10:20:40.493Z,3.95
2022-08-14T10:23:22.187Z,4.55
2022-08-14T10:25:57.805Z,4.65
2022-08-14T10:29:03.549Z,3.85
2022-08-14T10:31:25.650Z,4.10
2022-08-14T10:34:13.267Z,3.90
2022-08-14T10:36:45.707Z,4.28
2022-08-14T10:39:26.185Z,4.45
2022-08-14T10:42:16.451Z,4.13
2022-08-14T10:44:49.137Z,4.80
2022-08-14T10:47:39.119Z,4.20
2022-08-14T10:50:09.755Z,4.07
2022-08-14T10:55:14.157Z,4.00
2022-08-14T10:57:51.321Z,4.38
2022-08-14T11:00:29.898Z,4.43
2022-08-14T11:03:09.682Z,4.25
2022-08-14T11:05:44.306Z,4.90
2022-08-14T11:08:12.664Z,4.72
2022-08-14T11:10:45.265Z,4.32
2022-08-14T11:13:19.647Z,4.22
2022-08-14T11:15:47.000Z,4.35
2022-08-14T11:18:20.117Z,4.75
2022-08-14T11:20:55.611Z,3.70
2022-08-14T11:23:26.514Z,4.22
2022-08-14T11:26:10.488Z,4.88
2022-08-14T11:28:47.278Z,3.95
2022-08-14T11:31:24.523Z,3.90
2022-08-14T11:33:57.814Z,3.55
2022-08-14T11:36:57.235Z,2.67
2022-08-14T11:39:35.091Z,3.03
2022-08-14T11:42:57.688Z,2.88
2022-08-14T11:44:59.838Z,2.80
2022-08-14T11:47:35.022Z,2.78
2022-08-14T11:50:25.022Z,3.20
2022-08-14T11:53:04.445Z,2.80
2022-08-14T11:55:35.736Z,3.20
2022-08-14T11:58:08.826Z,3.45
2022-08-14T12:00:46.748Z,2.97
2022-08-14T12:03:17.001Z,2.95
2022-08-14T12:05:49.013Z,3.10
2022-08-14T12:08:16.515Z,3.00
2022-08-14T12:10:58.635Z,2.92
2022-08-14T12:13:32.507Z,2.90
2022-08-14T12:16:06.431Z,2.92
2022-08-14T12:18:38.471Z,2.95
2022-08-14T12:21:15.740Z,3.20
2022-08-14T12:23:47.656Z,3.50
2022-08-14T12:26:39.301Z,3.00
2022-08-14T12:29:19.602Z,3.45
2022-08-14T12:31:58.155Z,3.50
2022-08-14T12:34:31.517Z,2.95
2022-08-14T12:37:05.603Z,3.20
2022-08-14T12:39:40.284Z,3.53
2022-08-14T12:47:06.989Z,3.20
2022-08-14T12:49:34.671Z,3.53
2022-08-14T12:52:02.976Z,3.65
2022-08-14T12:54:32.322Z,3.30
2022-08-14T12:57:19.721Z,3.58
2022-08-14T12:59:49.580Z,3.45
2022-08-14T13:02:25.284Z,3.20
2022-08-14T13:04:55.877Z,3.50
2022-08-14T13:07:24.274Z,3.70
2022-08-14T13:09:56.262Z,4.03
2022-08-14T13:12:32.375Z,3.35
2022-08-14T13:15:08.995Z,3.40
2022-08-14T13:17:43.018Z,3.90
2022-08-14T13:20:23.967Z,3.47
2022-08-14T13:22:52.723Z,3.35
2022-08-14T13:25:20.891Z,3.50
2022-08-14T13:27:50.246Z,3.72
2022-08-14T13:30:24.226Z,3.30
2022-08-14T13:32:52.244Z,3.33
2022-08-14T13:35:20.237Z,3.17
2022-08-14T13:37:52.499Z,3.70
2022-08-14T13:40:26.705Z,3.30
2022-08-14T13:42:56.827Z,3.35
2022-08-14T13:45:59.958Z,3.80
2022-08-14T13:48:28.466Z,2.85
2022-08-14T13:51:01.568Z,3.05
2022-08-14T13:53:33.363Z,3.60
2022-08-14T13:56:00.941Z,3.42
2022-08-14T13:58:33.558Z,3.22
2022-08-14T14:01:02.096Z,3.10
2022-08-14T14:03:35.102Z,3.13
2022-08-14T14:06:03.539Z,3.17
2022-08-14T14:08:45.712Z,3.60
2022-08-14T14:11:15.769Z,3.40
2022-08-14T14:13:45.267Z,3.08
2022-08-14T14:16:15.318Z,3.55
2022-08-14T14:18:52.205Z,3.28
2022-08-14T14:21:21.805Z,3.10
2022-08-14T14:23:49.325Z,3.58
2022-08-14T14:26:23.123Z,3.22
2022-08-14T14:31:30.191Z,3.40
2022-08-14T14:34:07.337Z,3.75
2022-08-14T14:36:41.593Z,3.20
2022-08-14T14:39:11.123Z,3.53
2022-08-14T14:41:43.999Z,3.40
2022-08-14T14:44:16.563Z,3.97
2022-08-14T14:46:50.803Z,4.28
2022-08-14T14:49:22.182Z,3.83
2022-08-14T14:51:59.207Z,3.90
2022-08-14T14:54:30.039Z,3.85
2022-08-14T14:57:00.230Z,3.55
2022-08-14T14:59:30.382Z,3.70
2022-08-14T15:02:03.479Z,3.40
2022-08-14T15:04:35.798Z,3.35
2022-08-14T15:07:05.527Z,3.58
2022-08-14T15:09:34.070Z,3.70
2022-08-14T15:12:02.583Z,3.45
2022-08-14T15:14:55.530Z,3.47
2022-08-14T15:17:24.968Z,3.63
2022-08-14T15:19:56.954Z,3.92
2022-08-14T15:22:25.135Z,3.70
2022-08-14T15:24:52.688Z,4.15
2022-08-14T15:27:21.410Z,3.20
2022-08-14T15:29:53.922Z,3.58
2022-08-14T15:32:23.375Z,3.58
2022-08-14T15:34:52.482Z,3.30
2022-08-14T15:37:23.204Z,3.50
2022-08-14T15:39:52.686Z,3.33
2022-08-14T15:42:22.887Z,3.35
2022-08-14T15:44:58.301Z,3.65
2022-08-14T15:47:30.148Z,3.28
2022-08-14T15:49:59.526Z,3.83
2022-08-14T15:52:32.730Z,3.45
2022-08-14T15:55:03.574Z,3.38
2022-08-14T15:57:32.089Z,4.05
2022-08-14T16:00:21.373Z,3.50
2022-08-14T16:03:08.794Z,3.83
2022-08-14T16:05:38.008Z,3.47
2022-08-14T16:08:28.643Z,3.53
2022-08-14T16:10:56.683Z,3.60
2022-08-14T16:13:41.171Z,3.42
2022-08-14T16:16:47.461Z,3.60
2022-08-14T16:19:10.104Z,3.63
2022-08-14T16:21:39.453Z,3.60
2022-08-14T16:26:34.966Z,3.70
2022-08-14T16:29:04.716Z,3.53
2022-08-14T16:31:36.298Z,3.75
2022-08-14T16:34:45.901Z,3.42
2022-08-14T16:37:09.211Z,3.88
2022-08-14T16:39:38.786Z,3.80
2022-08-14T16:42:10.379Z,3.58
2022-08-14T16:44:54.245Z,3.33
2022-08-14T16:47:22.693Z,3.53
2022-08-14T16:50:04.776Z,3.45
2022-08-14T16:52:45.071Z,3.75
2022-08-14T16:55:30.198Z,3.47
2022-08-14T16:57:58.655Z,3.63
2022-08-14T17:00:32.956Z,3.55
2022-08-14T17:03:08.553Z,3.70
2022-08-14T17:05:43.283Z,4.22
2022-08-14T17:08:32.343Z,3.72
2022-08-14T17:10:58.065Z,3.28
2022-08-14T17:13:59.214Z,3.42
2022-08-14T17:16:23.917Z,3.83
2022-08-14T17:19:00.954Z,3.83
2022-08-14T17:21:35.380Z,3.65
2022-08-14T17:24:57.804Z,4.57
2022-08-14T17:26:55.000Z,3.75
2022-08-14T17:32:28.328Z,4.00
2022-08-14T17:35:01.863Z,4.07
2022-08-14T17:37:35.599Z,4.40
2022-08-14T17:40:15.121Z,3.50
2022-08-14T17:42:51.057Z,3.78
2022-08-14T17:45:26.837Z,4.20
2022-08-14T17:47:57.496Z,4.07
2022-08-14T17:50:59.031Z,3.83
2022-08-14T17:53:27.873Z,3.78
2022-08-14T17:56:02.228Z,3.92
2022-08-14T17:58:41.798Z,5.00
2022-08-14T18:01:13.269Z,3.75
2022-08-14T18:03:46.709Z,3.70
2022-08-14T18:06:39.592Z,3.42
2022-08-14T18:09:25.791Z,3.40
2022-08-14T18:11:58.390Z,3.92
2022-08-14T18:14:33.017Z,3.65
2022-08-14T18:17:16.004Z,3.65
2022-08-14T18:19:44.667Z,4.65
2022-08-14T18:22:31.439Z,4.03
2022-08-14T18:25:02.423Z,4.15
2022-08-14T18:27:36.246Z,4.13
2022-08-14T18:30:36.425Z,3.97
2022-08-14T18:32:55.067Z,3.42
2022-08-14T18:35:56.866Z,3.40
2022-08-14T18:38:45.821Z,3.47
2022-08-14T18:41:36.904Z,3.88
2022-08-14T18:44:10.820Z,3.70
2022-08-14T18:47:00.715Z,4.43
2022-08-14T18:49:33.491Z,4.07
2022-08-14T18:52:18.968Z,3.85
2022-08-14T18:54:48.681Z,3.40
2022-08-14T18:57:27.207Z,3.85
2022-08-14T19:00:32.830Z,3.95
2022-08-14T19:03:01.940Z,4.07
2022-08-14T19:05:47.666Z,4.03
2022-08-14T19:08:18.815Z,3.95
2022-08-14T19:10:49.481Z,3.92
2022-08-14T19:13:48.059Z,4.40
2022-08-14T19:16:18.560Z,4.30
2022-08-14T19:19:00.362Z,4.60
2022-08-14T19:21:28.014Z,4.32
2022-08-14T19:24:29.298Z,3.97
2022-08-14T19:27:14.765Z,3.95
2022-08-14T19:29:47.927Z,4.68
2022-08-14T19:34:47.967Z,3.95
2022-08-14T19:37:38.956Z,3.65
2022-08-14T19:40:15.524Z,2.60
2022-08-14T19:42:47.730Z,2.72
2022-08-14T19:45:16.785Z,2.47
2022-08-14T19:47:50.077Z,2.35
2022-08-14T19:50:37.668Z,2.10
2022-08-14T19:53:11.234Z,2.38
2022-08-14T19:55:45.761Z,2.00
2022-08-14T19:58:13.688Z,2.42
2022-08-14T20:00:52.605Z,2.10
2022-08-14T20:03:23.942Z,1.83
2022-08-14T20:06:05.322Z,1.90
2022-08-14T20:11:00.191Z,1.77
2022-08-14T20:12:00.406Z,2.30
2022-08-14T20:14:20.959Z,2.50
2022-08-14T20:17:03.204Z,1.92
2022-08-14T20:19:37.984Z,2.05
2022-08-14T20:22:35.163Z,2.83
2022-08-14T20:25:10.609Z,3.70
2022-08-14T20:27:39.585Z,3.63
2022-08-14T20:30:29.837Z,4.18
2022-08-14T20:32:57.520Z,4.30
2022-08-14T20:35:26.462Z,4.25
2022-08-14T20:38:31.488Z,4.38
2022-08-14T20:40:57.628Z,6.28
2022-08-14T20:43:44.564Z,5.13
2022-08-14T20:46:16.441Z,5.68
2022-08-14T20:48:59.977Z,5.25
2022-08-14T20:51:36.600Z,4.72
2022-08-14T20:54:05.438Z,4.90
2022-08-14T20:56:34.638Z,4.78
2022-08-14T20:59:17.326Z,4.90
2022-08-14T21:01:58.914Z,4.85
2022-08-14T21:04:29.065Z,4.57
2022-08-14T21:07:24.897Z,4.30
2022-08-14T21:10:06.269Z,4.18
2022-08-14T21:12:35.173Z,4.82
2022-08-14T21:15:10.166Z,4.70
2022-08-14T21:17:38.508Z,4.90
2022-08-14T21:20:26.053Z,5.15
2022-08-14T21:23:00.339Z,4.88
2022-08-14T21:25:29.007Z,4.45
2022-08-14T21:28:00.565Z,4.20
2022-08-14T21:30:46.439Z,4.63
2022-08-14T21:33:15.868Z,5.10
2022-08-14T21:35:46.842Z,4.53
2022-08-14T21:38:18.395Z,4.47
2022-08-14T21:40:48.796Z,4.50
2022-08-14T21:43:19.430Z,4.60
2022-08-14T21:45:58.171Z,4.50
2022-08-14T21:48:29.896Z,4.43
2022-08-14T21:51:02.139Z,4.53
2022-08-14T21:53:58.783Z,4.50
2022-08-14T21:56:37.420Z,4.85
2022-08-14T21:59:07.713Z,4.10
2022-08-14T22:02:01.946Z,4.28
2022-08-14T22:04:33.765Z,4.95
2022-08-14T22:07:05.989Z,4.78
2022-08-14T22:09:36.513Z,4.45
2022-08-14T22:12:06.756Z,4.25
2022-08-14T22:14:43.244Z,5.00
2022-08-14T22:17:13.109Z,4.45
2022-08-14T22:19:54.211Z,4.70
2022-08-14T22:22:23.120Z,5.05
2022-08-14T22:24:54.105Z,5.60
2022-08-14T22:27:29.523Z,4.80
2022-08-14T22:29:58.418Z,5.30
2022-08-14T22:35:02.425Z,4.93
2022-08-14T22:37:29.563Z,6.03
2022-08-14T22:40:46.171Z,5.82
2022-08-14T22:43:00.155Z,5.95
2022-08-14T22:45:36.475Z,6.03
2022-08-14T22:48:10.648Z,6.93
2022-08-14T22:50:48.801Z,6.70
2022-08-14T22:53:20.808Z,6.88
2022-08-14T22:55:48.078Z,7.05
2022-08-14T22:58:19.455Z,7.00
2022-08-14T23:01:00.146Z,7.32
2022-08-14T23:03:27.435Z,6.82
2022-08-14T23:05:57.367Z,6.55
2022-08-14T23:09:00.527Z,6.82
2022-08-14T23:11:13.720Z,6.22
2022-08-14T23:13:43.659Z,7.55
2022-08-14T23:16:19.808Z,6.68
2022-08-14T23:18:48.403Z,6.47
2022-08-14T23:21:24.355Z,6.30
2022-08-14T23:23:55.112Z,6.22
2022-08-14T23:26:47.110Z,5.50
2022-08-14T23:29:12.788Z,6.05
2022-08-14T23:31:43.586Z,5.18
2022-08-14T23:34:20.359Z,5.78
2022-08-14T23:36:53.188Z,5.50
2022-08-14T23:39:24.636Z,5.30
2022-08-14T23:41:58.030Z,5.18
2022-08-14T23:44:32.104Z,5.00
2022-08-14T23:47:03.481Z,5.40
2022-08-14T23:49:59.871Z,5.25
2022-08-14T23:52:50.099Z,5.15
2022-08-14T23:55:11.110Z,5.28
2022-08-14T23:57:43.714Z,5.35
